Time;durP1;ratioP1;P1;durP2;ratioP2;P2;SDS_P1;SDS_P2;PMS_P1;PMS_P2;Temp;Humidity;BMP_temperature;BMP_pressure;BME280_temperature;BME280_humidity;BME280_pressure;Samples;Min_cycle;Max_cycle;Signal;HPM_P1;HPM_P2
2021/07/17 00:00:55;;;;;;;22.02;14.38;;;20.60;99.90;;;;;;4995378;28;20054;-71
2021/07/17 00:03:22;;;;;;;21.83;14.57;;;20.60;99.90;;;;;;4995962;28;20050;-71
2021/07/17 00:05:48;;;;;;;19.92;14.10;;;20.60;99.90;;;;;;4995856;28;20042;-72
2021/07/17 00:08:15;;;;;;;22.63;15.23;;;20.60;99.90;;;;;;4995756;28;20097;-72
2021/07/17 00:10:47;;;;;;;22.38;14.90;;;20.60;99.90;;;;;;4995728;28;20046;-73
2021/07/17 00:13:13;;;;;;;;;;;20.60;99.90;;;;;;4996319;28;20074;-75
2021/07/17 00:15:40;;;;;;;17.25;13.52;;;20.60;99.90;;;;;;4995775;28;19921;-72
2021/07/17 00:18:08;;;;;;;21.85;14.50;;;20.60;99.90;;;;;;4995669;28;20043;-72
2021/07/17 00:20:35;;;;;;;24.08;14.70;;;20.60;99.90;;;;;;4994743;28;20058;-72
2021/07/17 00:23:02;;;;;;;18.20;14.07;;;20.60;99.90;;;;;;4995610;28;20038;-72
2021/07/17 00:25:28;;;;;;;24.20;16.92;;;20.60;99.90;;;;;;4995527;28;20098;-71
2021/07/17 00:27:55;;;;;;;24.80;14.65;;;20.50;99.90;;;;;;4995620;28;20054;-72
2021/07/17 00:30:22;;;;;;;22.90;15.02;;;20.50;99.90;;;;;;4994732;28;20050;-72
2021/07/17 00:32:48;;;;;;;21.13;14.63;;;20.50;99.90;;;;;;4995324;28;20050;-72
2021/07/17 00:35:16;;;;;;;23.50;14.95;;;20.50;99.90;;;;;;4995194;28;20379;-70
2021/07/17 00:37:43;;;;;;;23.35;13.98;;;20.50;99.90;;;;;;4994932;28;20514;-71
2021/07/17 00:40:12;;;;;;;18.17;14.10;;;20.50;99.90;;;;;;4994778;28;20105;-70
2021/07/17 00:42:41;;;;;;;23.20;14.23;;;20.50;99.90;;;;;;4994805;28;20046;-70
2021/07/17 00:45:08;;;;;;;22.60;15.57;;;20.40;99.90;;;;;;4994915;28;20070;-70
2021/07/17 00:47:36;;;;;;;24.00;15.52;;;20.40;99.90;;;;;;4995210;28;20164;-71
2021/07/17 00:50:04;;;;;;;18.25;15.02;;;20.40;99.90;;;;;;4994393;28;20132;-70
2021/07/17 00:52:32;;;;;;;18.38;13.80;;;20.40;99.90;;;;;;4994742;28;20557;-71
2021/07/17 00:54:59;;;;;;;19.92;14.65;;;20.40;99.90;;;;;;4994683;28;20093;-71
2021/07/17 00:57:29;;;;;;;25.20;15.45;;;20.40;99.90;;;;;;4994423;28;20494;-70
2021/07/17 00:59:59;;;;;;;17.70;14.32;;;20.30;99.90;;;;;;4994399;28;20046;-71
2021/07/17 01:02:26;;;;;;;21.20;13.82;;;20.40;99.90;;;;;;4995198;28;20046;-71
2021/07/17 01:04:54;;;;;;;19.77;15.27;;;20.40;99.90;;;;;;4994722;28;20462;-70
2021/07/17 01:07:20;;;;;;;21.40;13.95;;;20.40;99.90;;;;;;4994843;28;20042;-70
2021/07/17 01:09:48;;;;;;;19.42;13.73;;;20.30;99.90;;;;;;4993090;28;20097;-70
2021/07/17 01:12:15;;;;;;;22.30;15.43;;;20.30;99.90;;;;;;4993327;28;20047;-71
2021/07/17 01:14:42;;;;;;;18.92;15.15;;;20.40;99.90;;;;;;4994342;28;20096;-74
2021/07/17 01:17:09;;;;;;;19.67;14.25;;;20.30;99.90;;;;;;4994386;28;20051;-71
2021/07/17 01:19:36;;;;;;;17.23;12.98;;;20.30;99.90;;;;;;4993907;28;20117;-71
2021/07/17 01:22:04;;;;;;;19.73;14.25;;;20.30;99.90;;;;;;4994290;28;20046;-71
2021/07/17 01:24:31;;;;;;;21.70;14.80;;;20.30;99.90;;;;;;4994024;28;20050;-70
2021/07/17 01:26:58;;;;;;;22.33;13.60;;;20.30;99.90;;;;;;4994508;28;20105;-71
2021/07/17 01:29:25;;;;;;;20.55;13.00;;;20.30;99.90;;;;;;4993876;28;20478;-72
2021/07/17 01:31:52;;;;;;;20.98;13.98;;;20.30;99.90;;;;;;4993921;28;20487;-71
2021/07/17 01:34:19;;;;;;;15.73;13.05;;;20.20;99.90;;;;;;4994436;28;20046;-73
2021/07/17 01:36:46;;;;;;;16.98;12.77;;;20.30;99.90;;;;;;4993820;28;20072;-73
2021/07/17 01:39:14;;;;;;;18.40;13.57;;;20.20;99.90;;;;;;4973987;28;20046;-71
2021/07/17 01:41:41;;;;;;;20.73;13.35;;;20.20;99.90;;;;;;4974775;28;20046;-72
2021/07/17 01:44:08;;;;;;;16.08;13.52;;;20.20;99.90;;;;;;4991208;28;20050;-72
2021/07/17 01:46:35;;;;;;;21.05;12.27;;;20.20;99.90;;;;;;4994080;28;20050;-73
2021/07/17 01:49:02;;;;;;;20.42;14.25;;;20.10;99.90;;;;;;4993009;28;20050;-71
2021/07/17 01:51:28;;;;;;;21.13;15.98;;;20.10;99.90;;;;;;4994039;28;20601;-73
2021/07/17 01:53:57;;;;;;;15.82;12.43;;;20.10;99.90;;;;;;4974238;28;20046;-70
2021/07/17 01:56:26;;;;;;;15.15;11.95;;;20.10;99.90;;;;;;4974665;28;20046;-74
2021/07/17 01:58:54;;;;;;;19.20;13.27;;;20.10;99.90;;;;;;4973837;28;20102;-70
2021/07/17 02:01:20;;;;;;;21.58;13.95;;;20.00;99.90;;;;;;4974509;28;20053;-72
2021/07/17 02:03:48;;;;;;;20.17;13.88;;;20.00;99.90;;;;;;4974164;28;20101;-72
2021/07/17 02:06:15;;;;;;;22.85;13.77;;;20.00;99.90;;;;;;4974373;28;20051;-74
2021/07/17 02:08:42;;;;;;;16.52;13.63;;;20.00;99.90;;;;;;4992986;28;20050;-71
2021/07/17 02:11:09;;;;;;;18.25;12.27;;;19.90;99.90;;;;;;4993795;28;20112;-73
2021/07/17 02:13:37;;;;;;;19.50;14.13;;;19.90;99.90;;;;;;4993381;28;20046;-72
2021/07/17 02:16:04;;;;;;;21.35;13.85;;;19.90;99.90;;;;;;4993449;28;20129;-71
2021/07/17 02:18:33;;;;;;;22.20;13.07;;;19.90;99.90;;;;;;4992752;28;20051;-71
2021/07/17 02:21:01;;;;;;;21.30;13.40;;;19.90;99.90;;;;;;4992285;28;20101;-73
2021/07/17 02:23:27;;;;;;;15.05;12.40;;;20.00;99.90;;;;;;4993198;28;20046;-74
2021/07/17 02:25:54;;;;;;;17.70;12.38;;;20.00;99.90;;;;;;4993119;28;20054;-73
2021/07/17 02:28:21;;;;;;;22.50;11.73;;;20.00;99.90;;;;;;4992945;28;20461;-71
2021/07/17 02:30:50;;;;;;;18.50;11.48;;;20.00;99.90;;;;;;4992998;28;20092;-72
2021/07/17 02:33:17;;;;;;;20.05;13.48;;;19.90;99.90;;;;;;4992747;28;20046;-72
2021/07/17 02:35:44;;;;;;;20.23;12.45;;;19.90;99.90;;;;;;4993344;28;20098;-71
2021/07/17 02:38:11;;;;;;;21.67;12.93;;;19.90;99.90;;;;;;4992567;28;20050;-75
2021/07/17 02:40:38;;;;;;;14.73;10.95;;;19.90;99.90;;;;;;4992607;28;20097;-71
2021/07/17 02:43:05;;;;;;;17.73;12.23;;;19.80;99.90;;;;;;4992681;28;20046;-72
2021/07/17 02:45:32;;;;;;;18.48;12.93;;;19.80;99.90;;;;;;4992860;28;20101;-72
2021/07/17 02:47:59;;;;;;;17.73;12.55;;;19.80;99.90;;;;;;4992636;28;20046;-73
2021/07/17 02:50:26;;;;;;;18.20;12.68;;;19.80;99.90;;;;;;4992424;28;20082;-72
2021/07/17 02:52:53;;;;;;;17.27;13.13;;;19.80;99.90;;;;;;4992846;28;20077;-72
2021/07/17 02:55:21;;;;;;;16.90;12.00;;;19.80;99.90;;;;;;4992682;28;20077;-72
2021/07/17 02:57:47;;;;;;;18.77;12.70;;;19.80;99.90;;;;;;4992694;28;20129;-72
2021/07/17 03:00:15;;;;;;;17.63;12.73;;;19.80;99.90;;;;;;4991770;28;20046;-72
2021/07/17 03:02:43;;;;;;;18.77;10.93;;;19.70;99.90;;;;;;4993045;28;20450;-72
2021/07/17 03:05:12;;;;;;;17.25;10.60;;;19.80;99.90;;;;;;4992559;28;20046;-72
2021/07/17 03:07:39;;;;;;;16.60;11.93;;;19.80;99.90;;;;;;4992442;28;20112;-72
2021/07/17 03:10:06;;;;;;;14.85;12.27;;;19.80;99.90;;;;;;4991359;28;20442;-72
2021/07/17 03:12:33;;;;;;;17.00;12.68;;;19.80;99.90;;;;;;4992505;28;20058;-71
2021/07/17 03:14:59;;;;;;;20.85;12.82;;;19.80;99.90;;;;;;4992175;28;20104;-73
2021/07/17 03:17:26;;;;;;;17.23;12.68;;;19.80;99.90;;;;;;4992232;28;20046;-70
2021/07/17 03:19:53;;;;;;;17.00;13.35;;;19.80;99.90;;;;;;4991678;28;20090;-70
2021/07/17 03:22:22;;;;;;;21.73;12.43;;;19.90;99.90;;;;;;4991925;28;20462;-71
2021/07/17 03:24:49;;;;;;;15.50;11.00;;;19.90;99.90;;;;;;4992414;28;20053;-72
2021/07/17 03:27:15;;;;;;;15.70;12.07;;;19.90;99.90;;;;;;4992095;28;20458;-71
2021/07/17 03:29:42;;;;;;;22.63;12.50;;;19.90;99.90;;;;;;4990889;28;20104;-72
2021/07/17 03:32:08;;;;;;;19.90;12.82;;;20.00;99.90;;;;;;4991627;28;20494;-72
2021/07/17 03:34:36;;;;;;;14.20;10.75;;;20.00;99.90;;;;;;4991301;28;20494;-71
2021/07/17 03:37:03;;;;;;;18.13;12.43;;;20.00;99.90;;;;;;4991635;28;20407;-72
2021/07/17 03:39:31;;;;;;;15.73;11.88;;;20.00;99.90;;;;;;4991394;28;20050;-71
2021/07/17 03:41:57;;;;;;;15.77;11.70;;;20.10;99.90;;;;;;4991992;28;20467;-71
2021/07/17 03:44:27;;;;;;;17.65;11.20;;;20.00;99.90;;;;;;4992429;28;20050;-72
2021/07/17 03:46:53;;;;;;;17.08;11.68;;;20.10;99.90;;;;;;4992602;28;20104;-71
2021/07/17 03:49:20;;;;;;;20.20;11.57;;;20.10;99.90;;;;;;4992915;28;20055;-70
2021/07/17 03:51:46;;;;;;;17.10;11.43;;;20.10;99.90;;;;;;4992027;28;20046;-71
2021/07/17 03:54:13;;;;;;;26.13;13.13;;;20.10;99.90;;;;;;4992099;28;20050;-71
2021/07/17 03:56:41;;;;;;;18.30;11.20;;;20.10;99.90;;;;;;4991987;28;20181;-71
2021/07/17 03:59:07;;;;;;;14.52;11.57;;;20.10;99.90;;;;;;4991490;28;20047;-71
2021/07/17 04:01:34;;;;;;;22.20;12.18;;;20.20;99.90;;;;;;4991962;28;20046;-71
2021/07/17 04:04:01;;;;;;;21.08;12.20;;;20.20;99.90;;;;;;4991141;28;20642;-71
2021/07/17 04:06:27;;;;;;;19.70;11.55;;;20.20;99.90;;;;;;4991536;28;20053;-71
2021/07/17 04:08:54;;;;;;;15.45;12.52;;;20.30;99.90;;;;;;4991440;28;20097;-71
2021/07/17 04:11:20;;;;;;;14.10;11.10;;;20.30;99.90;;;;;;4991370;28;20050;-70
2021/07/17 04:13:48;;;;;;;17.20;10.88;;;20.30;99.90;;;;;;4992040;28;20046;-70
2021/07/17 04:16:15;;;;;;;21.20;13.27;;;20.30;99.90;;;;;;4991686;28;20042;-71
2021/07/17 04:18:41;;;;;;;16.25;10.60;;;20.30;99.90;;;;;;4991479;28;20050;-71
2021/07/17 04:21:08;;;;;;;15.23;11.02;;;20.30;99.90;;;;;;4991476;28;20502;-70
2021/07/17 04:23:35;;;;;;;17.58;11.80;;;20.30;99.90;;;;;;4991749;28;20392;-72
2021/07/17 04:26:01;;;;;;;17.90;10.82;;;20.30;99.90;;;;;;4991782;28;20410;-72
2021/07/17 04:28:28;;;;;;;18.00;12.50;;;20.40;99.90;;;;;;4991244;28;20047;-71
2021/07/17 04:30:56;;;;;;;16.60;11.48;;;20.40;99.90;;;;;;4991594;28;20061;-71
2021/07/17 04:33:22;;;;;;;20.30;12.80;;;20.40;99.90;;;;;;4991755;28;20046;-72
2021/07/17 04:35:50;;;;;;;18.80;13.18;;;20.40;99.90;;;;;;4991560;28;20047;-72
2021/07/17 04:38:16;;;;;;;17.85;12.73;;;20.40;99.90;;;;;;4991034;28;20046;-74
2021/07/17 04:40:43;;;;;;;20.17;12.30;;;20.40;99.90;;;;;;4991419;28;20042;-72
2021/07/17 04:43:09;;;;;;;20.35;12.55;;;20.40;99.90;;;;;;4991730;28;20093;-71
2021/07/17 04:45:36;;;;;;;18.60;13.13;;;20.40;99.90;;;;;;4992801;28;20465;-70
2021/07/17 04:48:04;;;;;;;21.88;13.85;;;20.50;99.90;;;;;;4995276;28;20042;-70
2021/07/17 04:50:31;;;;;;;18.40;12.68;;;20.60;99.90;;;;;;4993886;28;20521;-71
2021/07/17 04:52:58;;;;;;;17.90;12.50;;;20.70;99.90;;;;;;4994650;28;20525;-71
2021/07/17 04:55:25;;;;;;;16.40;12.52;;;20.80;99.90;;;;;;4994763;28;20058;-72
2021/07/17 04:57:51;;;;;;;17.38;13.02;;;21.00;99.90;;;;;;4994946;28;20438;-73
2021/07/17 05:00:19;;;;;;;21.98;16.25;;;21.20;99.90;;;;;;4993586;28;20042;-73
2021/07/17 05:02:47;;;;;;;22.33;13.07;;;21.40;99.90;;;;;;4994569;28;20098;-72
2021/07/17 05:05:16;;;;;;;19.25;13.55;;;21.50;99.90;;;;;;4994531;28;20042;-71
2021/07/17 05:07:42;;;;;;;19.00;12.90;;;21.60;99.90;;;;;;4994351;28;20062;-72
2021/07/17 05:10:10;;;;;;;14.52;11.82;;;21.60;99.90;;;;;;4994434;28;20050;-71
2021/07/17 05:12:37;;;;;;;16.98;13.45;;;21.70;99.90;;;;;;4994550;28;20096;-72
2021/07/17 05:15:05;;;;;;;25.90;16.00;;;21.60;99.90;;;;;;4994514;28;20045;-71
2021/07/17 05:17:31;;;;;;;18.33;13.43;;;21.70;99.90;;;;;;4994331;28;20100;-70
2021/07/17 05:19:58;;;;;;;29.02;18.92;;;21.70;99.90;;;;;;4993734;28;20104;-71
2021/07/17 05:22:26;;;;;;;20.67;12.93;;;21.80;99.90;;;;;;4994143;28;20046;-70
2021/07/17 05:24:53;;;;;;;20.50;13.68;;;21.90;99.90;;;;;;4995298;28;20477;-72
2021/07/17 05:27:19;;;;;;;18.33;14.32;;;21.90;99.90;;;;;;4994153;28;20050;-71
2021/07/17 05:29:47;;;;;;;20.70;15.00;;;22.00;99.90;;;;;;4993234;28;20108;-68
2021/07/17 05:32:14;;;;;;;20.00;13.50;;;22.00;99.90;;;;;;4994106;28;20483;-69
2021/07/17 05:34:41;;;;;;;22.20;13.52;;;22.10;99.90;;;;;;4994055;28;20054;-70
2021/07/17 05:37:08;;;;;;;21.55;14.25;;;22.10;99.90;;;;;;4994020;28;20054;-70
2021/07/17 05:39:36;;;;;;;19.52;13.93;;;22.10;99.90;;;;;;4993351;28;20498;-70
2021/07/17 05:42:03;;;;;;;29.42;17.58;;;22.20;99.90;;;;;;4994266;28;20058;-70
2021/07/17 05:44:30;;;;;;;21.65;17.30;;;22.20;99.90;;;;;;4993848;28;20038;-69
2021/07/17 05:46:57;;;;;;;19.58;13.65;;;22.20;99.90;;;;;;4994620;28;20470;-76
2021/07/17 05:49:23;;;;;;;19.70;13.82;;;22.10;99.90;;;;;;4993513;28;20096;-68
2021/07/17 05:51:50;;;;;;;29.60;21.40;;;22.20;99.90;;;;;;4993919;28;20046;-69
2021/07/17 05:54:16;;;;;;;27.33;17.58;;;22.20;99.90;;;;;;4994074;28;20046;-70
2021/07/17 05:56:45;;;;;;;28.45;20.52;;;22.30;99.90;;;;;;4992864;28;20498;-73
2021/07/17 05:59:11;;;;;;;24.02;16.58;;;22.30;99.90;;;;;;4992210;28;20054;-71
2021/07/17 06:01:38;;;;;;;21.27;15.70;;;22.40;99.90;;;;;;4993675;28;20491;-70
2021/07/17 06:04:07;;;;;;;21.08;15.32;;;22.40;99.90;;;;;;4993690;28;20112;-71
2021/07/17 06:06:34;;;;;;;22.27;15.82;;;22.40;99.90;;;;;;4994175;28;20057;-70
2021/07/17 06:09:01;;;;;;;21.63;16.73;;;22.50;99.90;;;;;;4993111;28;20043;-70
2021/07/17 06:11:27;;;;;;;23.05;16.75;;;22.50;99.90;;;;;;4993516;28;20101;-71
2021/07/17 06:13:56;;;;;;;25.75;16.13;;;22.50;99.90;;;;;;4993351;28;20069;-71
2021/07/17 06:16:22;;;;;;;24.48;16.15;;;22.60;99.90;;;;;;4993357;28;20043;-71
2021/07/17 06:18:49;;;;;;;23.15;16.85;;;22.70;99.90;;;;;;4993127;28;20109;-71
2021/07/17 06:21:16;;;;;;;43.10;29.52;;;22.80;99.90;;;;;;4993424;28;20050;-71
2021/07/17 06:23:42;;;;;;;24.80;19.20;;;22.80;99.90;;;;;;4993380;28;20043;-70
2021/07/17 06:26:09;;;;;;;25.65;15.75;;;22.90;99.90;;;;;;4993242;28;20450;-70
2021/07/17 06:28:36;;;;;;;21.33;16.15;;;23.00;99.90;;;;;;4992502;28;21002;-72
2021/07/17 06:31:04;;;;;;;25.30;16.02;;;23.00;99.90;;;;;;4992688;28;20093;-72
2021/07/17 06:33:31;;;;;;;20.55;14.55;;;23.00;99.90;;;;;;4993355;28;20557;-71
2021/07/17 06:35:57;;;;;;;25.05;16.92;;;22.90;99.90;;;;;;4993929;28;20042;-71
2021/07/17 06:38:24;;;;;;;19.85;16.27;;;22.80;99.90;;;;;;4994375;28;20584;-71
2021/07/17 06:40:50;;;;;;;18.98;14.98;;;22.80;99.90;;;;;;4994596;28;20050;-71
2021/07/17 06:43:17;;;;;;;31.85;22.98;;;22.80;99.90;;;;;;4993880;28;20092;-71
2021/07/17 06:45:44;;;;;;;24.75;16.08;;;22.70;99.90;;;;;;4993775;28;20497;-70
2021/07/17 06:48:12;;;;;;;22.27;17.15;;;22.70;99.90;;;;;;4993336;28;20495;-71
2021/07/17 06:50:39;;;;;;;21.88;17.02;;;22.80;99.90;;;;;;4993147;28;20625;-70
2021/07/17 06:53:05;;;;;;;26.20;17.77;;;22.80;99.90;;;;;;4994162;28;20047;-71
2021/07/17 06:55:33;;;;;;;20.98;14.07;;;22.70;99.90;;;;;;4994050;28;20483;-71
2021/07/17 06:58:00;;;;;;;21.27;15.98;;;22.70;99.90;;;;;;4994001;28;20042;-70
2021/07/17 07:00:27;;;;;;;19.60;14.65;;;22.70;99.90;;;;;;4993455;28;20073;-70
2021/07/17 07:02:53;;;;;;;20.63;15.32;;;22.90;99.90;;;;;;4993600;28;20519;-71
2021/07/17 07:05:21;;;;;;;19.02;13.35;;;23.00;99.90;;;;;;4993099;28;20112;-70
2021/07/17 07:07:48;;;;;;;21.65;15.50;;;23.00;99.90;;;;;;4993108;28;20100;-71
2021/07/17 07:10:14;;;;;;;20.73;14.98;;;23.10;99.90;;;;;;4991834;28;20050;-69
2021/07/17 07:12:41;;;;;;;19.77;14.18;;;23.20;99.90;;;;;;4992131;28;20046;-69
2021/07/17 07:15:09;;;;;;;24.80;17.75;;;23.20;99.90;;;;;;4992615;28;20443;-69
2021/07/17 07:17:36;;;;;;;31.67;21.58;;;23.30;99.90;;;;;;4992710;28;20077;-69
2021/07/17 07:20:03;;;;;;;20.20;14.07;;;23.20;99.90;;;;;;4992464;28;20050;-70
2021/07/17 07:22:31;;;;;;;12.77;11.48;;;23.20;99.90;;;;;;4993234;28;20160;-70
2021/07/17 07:24:58;;;;;;;13.77;11.18;;;23.10;99.90;;;;;;4993871;28;20055;-70
2021/07/17 07:27:24;;;;;;;16.98;11.93;;;23.10;99.90;;;;;;4993400;28;20050;-70
2021/07/17 07:29:51;;;;;;;17.42;12.75;;;23.10;99.90;;;;;;4993266;28;20092;-71
2021/07/17 07:32:18;;;;;;;14.43;10.88;;;23.00;99.90;;;;;;4993361;28;20101;-71
2021/07/17 07:34:44;;;;;;;18.05;14.35;;;23.10;99.90;;;;;;4993205;28;20072;-70
2021/07/17 07:37:11;;;;;;;15.52;11.20;;;23.20;99.90;;;;;;4993204;28;20046;-70
2021/07/17 07:39:39;;;;;;;12.55;10.52;;;23.60;99.90;;;;;;4993129;28;20132;-71
2021/07/17 07:42:06;;;;;;;12.52;9.32;;;24.10;99.90;;;;;;4993791;28;20047;-71
2021/07/17 07:44:33;;;;;;;11.95;10.20;;;24.70;99.90;;;;;;4993907;28;20062;-71
2021/07/17 07:47:00;;;;;;;12.55;9.50;;;25.40;99.90;;;;;;4993782;28;20418;-70
2021/07/17 07:49:26;;;;;;;11.07;9.15;;;26.00;99.90;;;;;;4991656;28;20105;-71
2021/07/17 07:51:53;;;;;;;11.80;9.32;;;26.70;99.90;;;;;;4992173;28;20057;-70
2021/07/17 07:54:20;;;;;;;10.70;9.60;;;26.90;99.90;;;;;;4992022;28;20495;-69
2021/07/17 07:56:48;;;;;;;14.18;8.90;;;27.30;99.90;;;;;;4991970;28;20096;-70
2021/07/17 07:59:14;;;;;;;12.13;10.05;;;27.70;99.90;;;;;;4991363;28;20573;-70
2021/07/17 08:01:41;;;;;;;11.52;9.10;;;27.90;99.90;;;;;;4992876;28;20046;-73
2021/07/17 08:04:07;;;;;;;10.40;8.75;;;27.70;99.90;;;;;;4993316;28;20121;-71
2021/07/17 08:06:34;;;;;;;11.90;9.90;;;27.60;99.90;;;;;;4993709;28;20054;-71
2021/07/17 08:09:01;;;;;;;11.13;9.52;;;27.40;99.90;;;;;;4993689;28;20105;-70
2021/07/17 08:11:27;;;;;;;10.35;9.18;;;27.10;99.90;;;;;;4994524;28;20458;-71
2021/07/17 08:13:55;;;;;;;12.57;9.52;;;26.90;99.90;;;;;;4992919;28;20047;-70
2021/07/17 08:16:22;;;;;;;12.93;9.70;;;26.40;99.90;;;;;;4992427;28;20046;-70
2021/07/17 08:18:48;;;;;;;14.77;10.57;;;26.10;99.90;;;;;;4992165;28;20553;-71
2021/07/17 08:21:15;;;;;;;11.48;10.27;;;25.80;99.90;;;;;;4994830;28;20050;-71
2021/07/17 08:23:44;;;;;;;13.18;10.90;;;25.40;99.90;;;;;;4996141;28;20710;-70
2021/07/17 08:26:10;;;;;;;15.55;10.80;;;25.60;99.90;;;;;;4996312;28;20073;-71
2021/07/17 08:28:37;;;;;;;14.63;9.52;;;25.60;99.90;;;;;;4995298;28;20538;-71
2021/07/17 08:31:05;;;;;;;11.65;9.68;;;25.60;99.90;;;;;;4995846;28;20181;-71
2021/07/17 08:33:32;;;;;;;14.70;10.20;;;25.50;99.90;;;;;;4995883;28;20507;-71
2021/07/17 08:35:59;;;;;;;11.65;10.32;;;25.60;99.90;;;;;;4995711;28;20482;-70
2021/07/17 08:38:25;;;;;;;13.13;11.23;;;25.90;99.90;;;;;;4995658;28;20046;-71
2021/07/17 08:40:53;;;;;;;14.77;10.85;;;25.90;99.90;;;;;;4996040;28;20042;-71
2021/07/17 08:43:21;;;;;;;14.00;10.50;;;26.00;99.90;;;;;;4995689;28;20384;-70
2021/07/17 08:45:48;;;;;;;15.18;10.70;;;26.00;99.90;;;;;;4995285;28;20104;-70
2021/07/17 08:48:18;;;;;;;11.98;9.60;;;25.70;99.90;;;;;;4994810;28;20050;-70
2021/07/17 08:50:45;;;;;;;10.60;9.25;;;25.70;99.90;;;;;;4994574;28;20074;-70
2021/07/17 08:53:13;;;;;;;13.45;10.35;;;25.70;99.90;;;;;;4994936;28;20054;-70
2021/07/17 08:55:39;;;;;;;12.30;9.93;;;25.90;99.90;;;;;;4994930;28;20046;-71
2021/07/17 08:58:06;;;;;;;11.15;8.90;;;26.70;99.90;;;;;;4995263;28;20074;-70
2021/07/17 09:00:35;;;;;;;10.95;9.38;;;26.90;99.90;;;;;;4994963;28;20042;-72
2021/07/17 09:03:06;;;;;;;11.45;9.98;;;26.70;99.90;;;;;;4996122;28;20483;-72
2021/07/17 09:05:42;;;;;;;13.85;9.63;;;26.20;99.90;;;;;;4996354;28;20096;-70
2021/07/17 09:08:09;;;;;;;12.40;9.80;;;25.80;99.90;;;;;;4997024;28;20047;-71
2021/07/17 09:10:38;;;;;;;17.08;10.45;;;25.70;99.90;;;;;;4995664;28;20046;-71
2021/07/17 09:13:10;;;;;;;10.10;8.98;;;25.70;99.90;;;;;;4996166;28;20128;-70
2021/07/17 09:15:38;;;;;;;13.15;10.60;;;25.70;99.90;;;;;;4995865;28;20491;-70
2021/07/17 09:18:05;;;;;;;12.52;9.45;;;25.80;99.90;;;;;;4996430;28;20050;-69
2021/07/17 09:20:31;;;;;;;13.15;10.90;;;25.60;99.90;;;;;;4995355;28;20042;-71
2021/07/17 09:23:02;;;;;;;14.60;10.75;;;25.70;99.90;;;;;;4995270;28;20046;-70
2021/07/17 09:25:36;;;;;;;11.27;9.55;;;25.70;99.90;;;;;;4994801;28;20495;-73
2021/07/17 09:28:20;;;;;;;9.82;8.25;;;25.70;99.90;;;;;;4995556;28;20057;-70
2021/07/17 09:30:48;;;;;;;14.93;10.65;;;26.00;99.90;;;;;;4994423;28;20333;-71
2021/07/17 09:33:16;;;;;;;11.25;8.65;;;26.30;99.90;;;;;;4993355;28;20046;-68
2021/07/17 09:35:44;;;;;;;11.98;9.15;;;26.90;99.90;;;;;;4994480;28;20424;-72
2021/07/17 09:38:12;;;;;;;10.35;8.95;;;27.40;99.90;;;;;;4994339;28;20073;-70
2021/07/17 09:40:44;;;;;;;10.52;9.07;;;28.30;99.90;;;;;;4994429;28;20737;-70
2021/07/17 09:43:12;;;;;;;9.63;7.82;;;29.20;99.90;;;;;;4994847;28;20427;-70
2021/07/17 09:45:40;;;;;;;9.35;8.38;;;30.20;99.90;;;;;;4995118;28;20438;-71
2021/07/17 09:48:29;;;;;;;10.70;9.52;;;30.60;99.90;;;;;;4995179;28;20108;-69
2021/07/17 09:50:58;;;;;;;10.18;9.18;;;30.40;99.90;;;;;;4994899;28;20105;-71
2021/07/17 09:53:41;;;;;;;10.15;9.02;;;29.90;99.90;;;;;;4994761;28;20079;-75
2021/07/17 09:56:10;;;;;;;9.63;8.63;;;29.40;99.90;;;;;;4994625;28;20069;-70
2021/07/17 09:58:37;;;;;;;10.70;9.50;;;29.40;99.90;;;;;;4994507;28;20050;-71
2021/07/17 10:01:30;;;;;;;8.48;7.68;;;29.40;99.90;;;;;;4994868;28;20058;-71
2021/07/17 10:04:05;;;;;;;9.95;8.98;;;29.60;99.90;;;;;;4976865;28;20104;-71
2021/07/17 10:06:41;;;;;;;10.07;9.07;;;29.40;99.90;;;;;;4997422;28;20076;-72
2021/07/17 10:09:33;;;;;;;8.68;7.82;;;29.50;99.90;;;;;;4996918;28;20467;-72
2021/07/17 10:12:03;;;;;;;9.60;8.55;;;30.70;99.90;;;;;;4997793;28;20050;-71
2021/07/17 10:14:33;;;;;;;9.82;8.32;;;30.90;99.90;;;;;;5002814;28;20051;-71
2021/07/17 10:17:05;;;;;;;10.73;9.57;;;31.00;99.90;;;;;;4996498;28;20458;-70
2021/07/17 10:19:32;;;;;;;10.52;8.25;;;31.60;99.90;;;;;;4993595;28;20097;-71
2021/07/17 10:21:59;;;;;;;9.43;8.32;;;31.90;99.90;;;;;;4993764;28;20568;-70
2021/07/17 10:24:28;;;;;;;10.57;7.88;;;31.50;99.90;;;;;;4994236;28;20057;-71
2021/07/17 10:26:56;;;;;;;9.80;8.02;;;31.20;99.90;;;;;;4993632;28;20077;-70
2021/07/17 10:29:26;;;;;;;10.98;9.05;;;31.40;99.90;;;;;;4993389;28;20120;-70
2021/07/17 10:31:53;;;;;;;10.90;9.43;;;31.40;99.90;;;;;;4993724;28;20177;-70
2021/07/17 10:34:21;;;;;;;10.55;8.35;;;32.40;99.90;;;;;;4993310;28;20042;-71
2021/07/17 10:36:55;;;;;;;9.02;7.82;;;33.00;99.90;;;;;;4992880;28;20053;-71
2021/07/17 10:39:25;;;;;;;9.50;8.43;;;32.40;99.90;;;;;;4992903;28;20078;-69
2021/07/17 10:41:54;;;;;;;11.43;7.73;;;32.50;99.90;;;;;;4993298;28;20046;-70
2021/07/17 10:44:39;;;;;;;8.38;7.55;;;32.70;99.90;;;;;;4993055;28;20050;-70
2021/07/17 10:47:07;;;;;;;9.05;8.15;;;33.30;98.60;;;;;;4993043;28;20055;-69
2021/07/17 10:49:36;;;;;;;10.88;8.15;;;33.40;97.10;;;;;;4992667;28;20081;-70
2021/07/17 10:52:03;;;;;;;8.50;7.70;;;32.90;98.50;;;;;;4993248;28;20104;-70
2021/07/17 10:54:31;;;;;;;9.73;7.53;;;32.90;97.60;;;;;;4993525;28;20553;-71
2021/07/17 10:57:00;;;;;;;8.65;7.38;;;33.40;97.80;;;;;;4993611;28;20423;-71
2021/07/17 10:59:46;;;;;;;8.05;7.25;;;33.50;96.30;;;;;;4992952;28;20050;-71
2021/07/17 11:02:15;;;;;;;9.25;7.85;;;34.00;96.00;;;;;;4993488;28;20363;-71
2021/07/17 11:04:51;;;;;;;8.45;7.68;;;34.10;94.00;;;;;;4993583;28;20046;-71
2021/07/17 11:07:32;;;;;;;10.43;8.50;;;33.20;95.90;;;;;;4993753;28;20053;-70
2021/07/17 11:10:00;;;;;;;11.43;10.23;;;32.30;94.30;;;;;;4992346;28;20073;-71
2021/07/17 11:12:30;;;;;;;11.52;10.48;;;32.10;96.80;;;;;;4992871;28;20050;-72
2021/07/17 11:15:17;;;;;;;10.20;8.50;;;32.40;96.50;;;;;;4992526;28;20046;-71
2021/07/17 11:17:47;;;;;;;10.48;8.20;;;32.70;98.00;;;;;;4992095;28;20129;-70
2021/07/17 11:20:17;;;;;;;9.30;7.70;;;33.10;96.70;;;;;;4992612;28;20050;-70
2021/07/17 11:22:44;;;;;;;8.45;7.65;;;33.10;94.30;;;;;;4992582;28;20306;-70
2021/07/17 11:25:15;;;;;;;8.98;7.85;;;33.70;93.00;;;;;;4992424;28;20046;-71
2021/07/17 11:27:41;;;;;;;;;;;33.80;92.50;;;;;;4993247;28;20466;-70
2021/07/17 11:30:15;;;;;;;9.23;7.97;;;34.00;90.60;;;;;;4991378;28;19992;-71
2021/07/17 11:33:13;;;;;;;11.10;9.38;;;34.10;89.70;;;;;;4991709;28;20046;-71
2021/07/17 11:35:42;;;;;;;8.93;8.02;;;34.70;86.40;;;;;;4993530;28;20043;-73
2021/07/17 11:38:11;;;;;;;7.78;7.05;;;35.20;83.50;;;;;;4998526;28;20046;-70
2021/07/17 11:40:38;;;;;;;13.73;10.45;;;35.10;80.40;;;;;;4998622;28;20049;-70
2021/07/17 11:43:08;;;;;;;14.10;8.52;;;34.50;83.30;;;;;;4997271;28;20042;-70
2021/07/17 11:45:35;;;;;;;8.48;7.78;;;34.20;86.00;;;;;;5000610;28;20108;-70
2021/07/17 11:48:08;;;;;;;9.10;8.18;;;33.70;85.20;;;;;;5001762;28;20043;-72
2021/07/17 11:50:35;;;;;;;9.07;8.25;;;33.50;89.60;;;;;;4992426;28;20499;-71
2021/07/17 11:53:12;;;;;;;10.05;9.02;;;33.80;87.20;;;;;;4992111;28;20047;-70
2021/07/17 11:55:39;;;;;;;9.73;8.48;;;34.70;82.80;;;;;;4993676;28;20049;-70
2021/07/17 11:58:14;;;;;;;13.00;10.35;;;34.90;82.10;;;;;;4995821;28;20491;-70
2021/07/17 12:00:40;;;;;;;10.40;8.98;;;34.90;81.60;;;;;;4995851;28;20490;-70
2021/07/17 12:03:09;;;;;;;8.73;7.75;;;35.40;83.50;;;;;;4996413;28;20109;-70
2021/07/17 12:05:36;;;;;;;12.93;11.18;;;35.30;79.90;;;;;;4995943;28;20108;-70
2021/07/17 12:08:04;;;;;;;11.25;10.10;;;34.60;82.70;;;;;;4996147;28;20108;-70
2021/07/17 12:10:31;;;;;;;11.93;10.60;;;35.20;81.50;;;;;;4995448;28;20038;-70
2021/07/17 12:12:59;;;;;;;9.02;6.95;;;35.60;79.60;;;;;;4995963;28;20054;-70
2021/07/17 12:15:30;;;;;;;13.23;9.52;;;35.10;78.10;;;;;;4996878;28;20102;-71
2021/07/17 12:18:00;;;;;;;10.90;9.18;;;34.70;80.40;;;;;;4996155;28;20046;-71
2021/07/17 12:20:31;;;;;;;8.93;8.10;;;35.30;78.30;;;;;;4994940;28;20057;-71
2021/07/17 12:23:01;;;;;;;11.93;10.77;;;34.70;77.90;;;;;;4995890;28;20109;-71
2021/07/17 12:25:29;;;;;;;9.38;8.48;;;34.00;79.80;;;;;;4996123;28;20054;-71
2021/07/17 12:28:08;;;;;;;9.32;8.45;;;34.00;79.90;;;;;;4995777;28;20050;-71
2021/07/17 12:30:37;;;;;;;8.65;7.85;;;34.60;75.10;;;;;;4995229;28;20050;-70
2021/07/17 12:33:29;;;;;;;9.10;8.25;;;34.80;75.60;;;;;;4995883;28;20134;-71
2021/07/17 12:36:09;;;;;;;7.93;7.15;;;34.70;74.80;;;;;;4991478;28;20066;-71